Time;durP1;ratioP1;P1;durP2;ratioP2;P2;SDS_P1;SDS_P2;PMS_P1;PMS_P2;Temp;Humidity;BMP_temperature;BMP_pressure;BME280_temperature;BME280_humidity;BME280_pressure;Samples;Min_cycle;Max_cycle;Signal;HPM_P1;HPM_P2
2021/11/24 00:00:43;;;;;;;;;;;;;;;;;;4974456;28;19968;-70
2021/11/24 00:03:08;;;;;;;;;;;;;;;;;;4975634;28;19971;-67
2021/11/24 00:05:33;;;;;;;;;;;;;;;;;;4970237;28;19918;-67
2021/11/24 00:07:59;;;;;;;;;;;;;;;;;;4978025;28;19918;-67
2021/11/24 00:10:24;;;;;;;;;;;;;;;;;;4971642;28;19922;-67
2021/11/24 00:12:49;;;;;;;;;;;;;;;;;;4970605;28;19918;-69
2021/11/24 00:15:15;;;;;;;;;;;;;;;;;;4979066;28;19918;-68
2021/11/24 00:17:40;;;;;;;;;;;;;;;;;;4972727;28;19924;-68
2021/11/24 00:20:05;;;;;;;;;;;;;;;;;;4963933;28;19948;-67
2021/11/24 00:22:30;;;;;;;;;;;;;;;;;;4972128;28;20380;-69
2021/11/24 00:24:56;;;;;;;;;;;;;;;;;;4972772;28;20368;-69
2021/11/24 00:27:21;;;;;;;;;;;;;;;;;;4976265;28;19965;-69
2021/11/24 00:29:49;;;;;;;;;;;;;;;;;;4973902;28;20376;-68
2021/11/24 00:32:14;;;;;;;;;;;;;;;;;;4978712;28;19961;-69
2021/11/24 00:34:39;;;;;;;;;;;;;;;;;;4969954;28;20064;-67
2021/11/24 00:37:04;;;;;;;;;;;;;;;;;;4979834;28;20191;-67
2021/11/24 00:39:30;;;;;;;;;;;;;;;;;;4978143;28;19918;-67
2021/11/24 00:41:55;;;;;;;;;;;;;;;;;;4969613;28;19926;-68
2021/11/24 00:44:20;;;;;;;;;;;;;;;;;;4978174;28;19917;-67
2021/11/24 00:46:45;;;;;;;;;;;;;;;;;;4970333;28;19971;-67
2021/11/24 00:49:10;;;;;;;;;;;;;;;;;;4970238;28;20471;-69
2021/11/24 00:51:36;;;;;;;;;;;;;;;;;;4978037;28;20005;-67
2021/11/24 00:54:01;;;;;;;;;;;;;;;;;;4969503;28;19918;-67
2021/11/24 00:56:26;;;;;;;;;;;;;;;;;;4974764;28;19980;-68
2021/11/24 00:58:51;;;;;;;;;;;;;;;;;;4973884;28;20322;-67
2021/11/24 01:01:16;;;;;;;;;;;;;;;;;;4973448;28;20791;-68
2021/11/24 01:03:42;;;;;;;;;;;;;;;;;;4972893;28;20379;-68
2021/11/24 01:06:07;;;;;;;;;;;;;;;;;;4970546;28;19921;-68
2021/11/24 01:08:32;;;;;;;;;;;;;;;;;;4967308;28;20190;-68
2021/11/24 01:10:57;;;;;;;;;;;;;;;;;;4971082;28;19929;-68
2021/11/24 01:13:23;;;;;;;;;;;;;;;;;;4967682;28;21569;-68
2021/11/24 01:15:48;;;;;;;;;;;;;;;;;;4981966;28;20201;-68
2021/11/24 01:18:13;;;;;;;;;;;;;;;;;;4972461;28;19918;-68
2021/11/24 01:20:39;;;;;;;;;;;;;;;;;;4983371;28;20426;-67
2021/11/24 01:23:04;;;;;;;;;;;;;;;;;;4969975;28;19918;-68
2021/11/24 01:25:29;;;;;;;;;;;;;;;;;;4973321;28;19984;-68
2021/11/24 01:27:54;;;;;;;;;;;;;;;;;;4971117;28;19918;-67
2021/11/24 01:30:20;;;;;;;;;;;;;;;;;;4954590;28;19926;-68
2021/11/24 01:32:45;;;;;;;;;;;;;;;;;;4966314;28;19918;-68
2021/11/24 01:35:10;;;;;;;;;;;;;;;;;;4966582;28;19918;-68
2021/11/24 01:37:35;;;;;;;;;;;;;;;;;;4980767;28;19944;-68
2021/11/24 01:40:01;;;;;;;;;;;;;;;;;;4971242;28;20000;-68
2021/11/24 01:42:26;;;;;;;;;;;;;;;;;;4969447;28;20016;-67
2021/11/24 01:44:51;;;;;;;;;;;;;;;;;;4973799;28;19981;-68
2021/11/24 01:47:16;;;;;;;;;;;;;;;;;;4968080;28;20260;-69
2021/11/24 01:49:42;;;;;;;;;;;;;;;;;;4972155;28;19930;-71
2021/11/24 01:52:07;;;;;;;;;;;;;;;;;;4970920;28;19921;-68
2021/11/24 01:54:33;;;;;;;;;;;;;;;;;;4972245;28;19917;-68
2021/11/24 01:56:58;;;;;;;;;;;;;;;;;;4966936;28;20013;-69
2021/11/24 01:59:23;;;;;;;;;;;;;;;;;;4971712;28;20379;-69
2021/11/24 02:01:49;;;;;;;;;;;;;;;;;;4971736;28;20504;-69
2021/11/24 02:04:15;;;;;;;;;;;;;;;;;;4975387;28;19921;-68
2021/11/24 02:06:40;;;;;;;;;;;;;;;;;;4970564;28;20339;-68
2021/11/24 02:09:06;;;;;;;;;;;;;;;;;;4977843;28;20302;-68
2021/11/24 02:11:31;;;;;;;;;;;;;;;;;;4972494;28;20359;-67
2021/11/24 02:13:56;;;;;;;;;;;;;;;;;;4969580;28;20368;-68
2021/11/24 02:16:21;;;;;;;;;;;;;;;;;;4973720;28;19922;-69
2021/11/24 02:18:47;;;;;;;;;;;;;;;;;;4968734;28;20302;-69
2021/11/24 02:21:12;;;;;;;;;;;;;;;;;;4975613;28;20005;-69
2021/11/24 02:23:37;;;;;;;;;;;;;;;;;;4969450;28;20278;-69
2021/11/24 02:26:02;;;;;;;;;;;;;;;;;;4968892;28;20106;-69
2021/11/24 02:28:27;;;;;;;;;;;;;;;;;;4973904;28;19918;-68
2021/11/24 02:30:53;;;;;;;;;;;;;;;;;;4968358;28;19949;-69
2021/11/24 02:33:18;;;;;;;;;;;;;;;;;;4974296;28;20354;-68
2021/11/24 02:35:43;;;;;;;;;;;;;;;;;;4970672;28;20359;-69
2021/11/24 02:38:08;;;;;;;;;;;;;;;;;;4967769;28;20394;-67
2021/11/24 02:40:34;;;;;;;;;;;;;;;;;;4975729;28;20366;-69
2021/11/24 02:42:59;;;;;;;;;;;;;;;;;;4969042;28;20263;-68
2021/11/24 02:45:24;;;;;;;;;;;;;;;;;;4974981;28;19964;-68
2021/11/24 02:47:49;;;;;;;;;;;;;;;;;;4972420;28;20365;-69
2021/11/24 02:50:14;;;;;;;;;;;;;;;;;;4970855;28;19926;-68
2021/11/24 02:52:40;;;;;;;;;;;;;;;;;;4973239;28;20286;-68
2021/11/24 02:55:05;;;;;;;;;;;;;;;;;;4970260;28;20511;-68
2021/11/24 02:57:30;;;;;;;;;;;;;;;;;;4973841;28;20410;-68
2021/11/24 02:59:56;;;;;;;;;;;;;;;;;;4964523;28;19922;-67
2021/11/24 03:02:21;;;;;;;;;;;;;;;;;;4966943;28;19918;-67
2021/11/24 03:04:46;;;;;;;;;;;;;;;;;;4975193;28;19918;-67
2021/11/24 03:07:11;;;;;;;;;;;;;;;;;;4968296;28;19925;-67
2021/11/24 03:09:36;;;;;;;;;;;;;;;;;;4975275;28;19933;-68
2021/11/24 03:12:02;;;;;;;;;;;;;;;;;;4969390;28;19922;-68
2021/11/24 03:14:27;;;;;;;;;;;;;;;;;;4968102;28;19918;-68
2021/11/24 03:16:52;;;;;;;;;;;;;;;;;;4973287;28;19923;-68
2021/11/24 03:19:17;;;;;;;;;;;;;;;;;;4967809;28;19925;-68
2021/11/24 03:21:43;;;;;;;;;;;;;;;;;;4975126;28;19929;-68
2021/11/24 03:24:08;;;;;;;;;;;;;;;;;;4970541;28;19941;-68
2021/11/24 03:26:33;;;;;;;;;;;;;;;;;;4979602;28;20259;-69
2021/11/24 03:28:58;;;;;;;;;;;;;;;;;;4978581;28;20307;-69
2021/11/24 03:31:24;;;;;;;;;;;;;;;;;;4973067;28;19922;-68
2021/11/24 03:33:49;;;;;;;;;;;;;;;;;;4976284;28;19925;-69
2021/11/24 03:36:14;;;;;;;;;;;;;;;;;;4979210;28;20405;-69
2021/11/24 03:38:39;;;;;;;;;;;;;;;;;;4972285;28;20430;-69
2021/11/24 03:41:04;;;;;;;;;;;;;;;;;;4978349;28;19918;-68
2021/11/24 03:43:30;;;;;;;;;;;;;;;;;;4972016;28;20012;-69
2021/11/24 03:45:55;;;;;;;;;;;;;;;;;;4980694;28;20421;-70
2021/11/24 03:48:20;;;;;;;;;;;;;;;;;;4969495;28;19918;-67
2021/11/24 03:50:46;;;;;;;;;;;;;;;;;;4969669;28;19992;-68
2021/11/24 03:53:11;;;;;;;;;;;;;;;;;;4977290;28;20460;-68
2021/11/24 03:55:36;;;;;;;;;;;;;;;;;;4972754;28;19917;-67
2021/11/24 03:58:02;;;;;;;;;;;;;;;;;;4983872;28;19925;-68
2021/11/24 04:00:27;;;;;;;;;;;;;;;;;;4970797;28;19918;-67
2021/11/24 04:02:53;;;;;;;;;;;;;;;;;;4961908;28;19933;-68
2021/11/24 04:05:18;;;;;;;;;;;;;;;;;;4976937;28;19918;-67
2021/11/24 04:07:43;;;;;;;;;;;;;;;;;;4976709;28;19924;-68
2021/11/24 04:10:08;;;;;;;;;;;;;;;;;;4979351;28;19933;-68
2021/11/24 04:12:33;;;;;;;;;;;;;;;;;;4971907;28;19918;-68
2021/11/24 04:14:59;;;;;;;;;;;;;;;;;;4971822;28;19921;-68
2021/11/24 04:17:24;;;;;;;;;;;;;;;;;;4974888;28;20407;-68
2021/11/24 04:19:49;;;;;;;;;;;;;;;;;;4971434;28;19918;-68
2021/11/24 04:22:14;;;;;;;;;;;;;;;;;;4977472;28;20263;-67
2021/11/24 04:24:41;;;;;;;;;;;;;;;;;;4970066;28;19956;-68
2021/11/24 04:27:06;;;;;;;;;;;;;;;;;;4979139;28;20049;-68
2021/11/24 04:29:31;;;;;;;;;;;;;;;;;;4975480;28;20056;-69
2021/11/24 04:31:57;;;;;;;;;;;;;;;;;;4971014;28;19918;-69
2021/11/24 04:34:22;;;;;;;;;;;;;;;;;;4983975;28;19918;-68
2021/11/24 04:36:47;;;;;;;;;;;;;;;;;;4977184;28;19918;-69
2021/11/24 04:39:12;;;;;;;;;;;;;;;;;;4971714;28;19969;-69
2021/11/24 04:41:37;;;;;;;;;;;;;;;;;;4975949;28;20000;-69
2021/11/24 04:44:03;;;;;;;;;;;;;;;;;;4971688;28;19981;-69
2021/11/24 04:46:28;;;;;;;;;;;;;;;;;;4979274;28;20146;-68
2021/11/24 04:48:53;;;;;;;;;;;;;;;;;;4970710;28;19933;-69
2021/11/24 04:51:18;;;;;;;;;;;;;;;;;;4962001;28;19917;-69
2021/11/24 04:53:44;;;;;;;;;;;;;;;;;;4976334;28;20469;-69
2021/11/24 04:56:09;;;;;;;;;;;;;;;;;;4968994;28;19961;-68
2021/11/24 04:58:41;;;;;;;;;;;;;;;;;;4977695;28;19945;-68
2021/11/24 05:01:06;;;;;;;;;;;;;;;;;;4972204;28;19918;-68
2021/11/24 05:03:31;;;;;;;;;;;;;;;;;;4968630;28;19925;-69
2021/11/24 05:05:57;;;;;;;;;;;;;;;;;;4983898;28;19965;-68
2021/11/24 05:08:22;;;;;;;;;;;;;;;;;;4971385;28;20052;-68
2021/11/24 05:10:47;;;;;;;;;;;;;;;;;;4973631;28;20608;-69
2021/11/24 05:13:12;;;;;;;;;;;;;;;;;;4972412;28;19944;-68
2021/11/24 05:15:39;;;;;;;;;;;;;;;;;;4970328;28;19969;-68
2021/11/24 05:18:06;;;;;;;;;;;;;;;;;;4974016;28;20267;-69
2021/11/24 05:20:33;;;;;;;;;;;;;;;;;;4971332;28;19914;-69
2021/11/24 05:23:05;;;;;;;;;;;;;;;;;;4978638;28;20282;-69
2021/11/24 05:25:30;;;;;;;;;;;;;;;;;;4984328;28;19925;-69
2021/11/24 05:27:55;;;;;;;;;;;;;;;;;;4969536;28;20393;-68
2021/11/24 05:30:21;;;;;;;;;;;;;;;;;;4975926;28;19928;-68
2021/11/24 05:32:46;;;;;;;;;;;;;;;;;;4961894;28;19918;-69
2021/11/24 05:35:11;;;;;;;;;;;;;;;;;;4973822;28;19937;-69
2021/11/24 05:37:36;;;;;;;;;;;;;;;;;;4966905;28;19918;-69
2021/11/24 05:40:02;;;;;;;;;;;;;;;;;;4966911;28;19918;-68
2021/11/24 05:42:27;;;;;;;;;;;;;;;;;;4975723;28;20275;-68
2021/11/24 05:45:02;;;;;;;;;;;;;;;;;;4969148;28;20122;-69
2021/11/24 05:50:19;;;;;;;;;;;;;;;;;;4961135;28;19925;-68
2021/11/24 05:52:44;;;;;;;;;;;;;;;;;;4976226;28;19965;-66
2021/11/24 05:55:09;;;;;;;;;;;;;;;;;;4975352;28;19969;-68
2021/11/24 05:57:35;;;;;;;;;;;;;;;;;;4968245;28;19918;-69
2021/11/24 06:00:00;;;;;;;;;;;;;;;;;;4968687;28;19924;-68
2021/11/24 06:02:25;;;;;;;;;;;;;;;;;;4973566;28;19918;-69
2021/11/24 06:04:50;;;;;;;;;;;;;;;;;;4970392;28;20372;-69
2021/11/24 06:07:16;;;;;;;;;;;;;;;;;;4971828;28;20260;-69
2021/11/24 06:09:50;;;;;;;;;;;;;;;;;;5142340;27;20050;-68
2021/11/24 06:12:15;;;;;;;;;;;;;;;;;;5145842;27;20011;-67
2021/11/24 06:14:41;;;;;;;;;;;;;;;;;;5145345;27;19940;-67
2021/11/24 06:17:07;;;;;;;;;;;;;;;;;;5137314;27;19979;-67
2021/11/24 06:19:32;;;;;;;;;;;;;;;;;;5148502;27;20325;-68
2021/11/24 06:21:57;;;;;;;;;;;;;;;;;;5139893;27;19915;-67
2021/11/24 06:24:22;;;;;;;;;;;;;;;;;;5121207;27;19911;-66
2021/11/24 06:26:47;;;;;;;;;;;;;;;;;;5149954;27;19938;-68
2021/11/24 06:29:13;;;;;;;;;;;;;;;;;;5124337;27;20409;-66
2021/11/24 06:31:38;;;;;;;;;;;;;;;;;;5130089;27;20443;-68
2021/11/24 06:34:03;;;;;;;;;;;;;;;;;;5139201;27;20611;-67
2021/11/24 06:36:28;;;;;;;;;;;;;;;;;;5147432;27;19915;-67
2021/11/24 06:38:54;;;;;;;;;;;;;;;;;;5145882;27;20485;-67
2021/11/24 06:41:19;;;;;;;;;;;;;;;;;;5131162;27;19992;-67
2021/11/24 06:43:44;;;;;;;;;;;;;;;;;;5128100;27;20450;-67
2021/11/24 06:46:09;;;;;;;;;;;;;;;;;;5143428;27;19919;-67
2021/11/24 06:48:36;;;;;;;;;;;;;;;;;;5148307;27;19919;-67
2021/11/24 06:51:01;;;;;;;;;;;;;;;;;;5150168;27;19919;-67
2021/11/24 06:53:26;;;;;;;;;;;;;;;;;;5130904;27;19916;-68
2021/11/24 06:55:51;;;;;;;;;;;;;;;;;;5156662;27;19922;-67
2021/11/24 06:58:17;;;;;;;;;;;;;;;;;;5152498;27;20364;-67
2021/11/24 07:00:42;;;;;;;;;;;;;;;;;;5131424;27;20367;-67
2021/11/24 07:03:07;;;;;;;;;;;;;;;;;;5127634;27;19915;-68
2021/11/24 07:05:33;;;;;;;;;;;;;;;;;;5127008;27;19919;-67
2021/11/24 07:07:58;;;;;;;;;;;;;;;;;;5128381;27;19927;-67
2021/11/24 07:10:23;;;;;;;;;;;;;;;;;;5143615;27;19915;-68
2021/11/24 07:12:49;;;;;;;;;;;;;;;;;;5145923;27;19915;-67
2021/11/24 07:15:14;;;;;;;;;;;;;;;;;;5147335;27;19922;-66
2021/11/24 07:17:39;;;;;;;;;;;;;;;;;;5150946;27;20352;-66
2021/11/24 07:20:05;;;;;;;;;;;;;;;;;;5139840;27;19924;-67
2021/11/24 07:22:30;;;;;;;;;;;;;;;;;;5131572;27;19922;-67
2021/11/24 07:24:56;;;;;;;;;;;;;;;;;;5133394;27;19915;-66
2021/11/24 07:27:22;;;;;;;;;;;;;;;;;;5130775;27;19915;-67
2021/11/24 07:29:47;;;;;;;;;;;;;;;;;;5135798;27;19930;-67
2021/11/24 07:32:12;;;;;;;;;;;;;;;;;;5113609;27;19915;-67
2021/11/24 07:34:38;;;;;;;;;;;;;;;;;;5130817;27;19915;-67
2021/11/24 07:37:03;;;;;;;;;;;;;;;;;;5112270;27;19915;-66
2021/11/24 07:39:28;;;;;;;;;;;;;;;;;;5110661;27;19916;-67
2021/11/24 07:41:54;;;;;;;;;;;;;;;;;;5118184;27;19915;-66
2021/11/24 07:44:22;;;;;;;;;;;;;;;;;;5112205;27;19998;-66
2021/11/24 07:46:47;;;;;;;;;;;;;;;;;;5132797;27;20011;-67
2021/11/24 07:49:12;;;;;;;;;;;;;;;;;;5114573;27;19916;-67
2021/11/24 07:51:37;;;;;;;;;;;;;;;;;;5111222;27;19972;-65
2021/11/24 07:54:03;;;;;;;;;;;;;;;;;;5112417;27;20372;-68
2021/11/24 07:56:28;;;;;;;;;;;;;;;;;;5135627;27;19922;-66
2021/11/24 07:58:54;;;;;;;;;;;;;;;;;;5131872;27;19916;-66
2021/11/24 08:01:19;;;;;;;;;;;;;;;;;;5130674;27;19963;-66
2021/11/24 08:03:45;;;;;;;;;;;;;;;;;;5114424;27;20014;-67
2021/11/24 08:06:10;;;;;;;;;;;;;;;;;;5103726;27;20357;-67
2021/11/24 08:08:35;;;;;;;;;;;;;;;;;;5108192;27;19923;-68
2021/11/24 08:11:00;;;;;;;;;;;;;;;;;;5130960;27;19956;-66
2021/11/24 08:13:25;;;;;;;;;;;;;;;;;;5128385;27;19926;-67
2021/11/24 08:15:51;;;;;;;;;;;;;;;;;;5128038;27;19922;-66
2021/11/24 08:18:16;;;;;;;;;;;;;;;;;;5128911;27;19915;-65
2021/11/24 08:20:41;;;;;;;;;;;;;;;;;;5130032;27;19922;-67
2021/11/24 08:23:06;;;;;;;;;;;;;;;;;;5110793;27;19915;-67
2021/11/24 08:25:32;;;;;;;;;;;;;;;;;;5131581;27;20366;-65
2021/11/24 08:27:57;;;;;;;;;;;;;;;;;;5130637;27;19925;-66
2021/11/24 08:30:22;;;;;;;;;;;;;;;;;;5109104;27;19919;-65
2021/11/24 08:32:48;;;;;;;;;;;;;;;;;;5125463;27;19915;-66
2021/11/24 08:35:14;;;;;;;;;;;;;;;;;;5128684;27;19926;-67
2021/11/24 08:37:39;;;;;;;;;;;;;;;;;;5081530;27;19915;-65
2021/11/24 08:40:04;;;;;;;;;;;;;;;;;;5128033;27;19915;-67
2021/11/24 08:42:30;;;;;;;;;;;;;;;;;;5128785;27;20314;-66
2021/11/24 08:44:55;;;;;;;;;;;;;;;;;;5128183;27;20288;-65
2021/11/24 08:47:20;;;;;;;;;;;;;;;;;;5121405;27;19968;-65
2021/11/24 08:49:45;;;;;;;;;;;;;;;;;;5092209;27;19924;-67
2021/11/24 08:52:11;;;;;;;;;;;;;;;;;;5106825;27;19977;-65
2021/11/24 08:54:37;;;;;;;;;;;;;;;;;;5107473;27;19914;-66
2021/11/24 08:57:02;;;;;;;;;;;;;;;;;;5128831;27;19916;-66
2021/11/24 08:59:28;;;;;;;;;;;;;;;;;;5127660;27;19916;-65
2021/11/24 09:01:53;;;;;;;;;;;;;;;;;;5124451;27;19920;-66
2021/11/24 09:04:18;;;;;;;;;;;;;;;;;;5126216;27;19923;-66
2021/11/24 09:06:43;;;;;;;;;;;;;;;;;;5128498;27;20395;-64
2021/11/24 09:09:09;;;;;;;;;;;;;;;;;;5094321;27;20290;-64
2021/11/24 09:11:34;;;;;;;;;;;;;;;;;;5110815;27;20318;-64
2021/11/24 09:13:59;;;;;;;;;;;;;;;;;;5130423;27;20016;-66
2021/11/24 09:16:24;;;;;;;;;;;;;;;;;;5110543;27;19915;-67
2021/11/24 09:18:50;;;;;;;;;;;;;;;;;;5130822;27;20307;-66
2021/11/24 09:21:15;;;;;;;;;;;;;;;;;;5107874;27;19969;-64
2021/11/24 09:23:43;;;;;;;;;;;;;;;;;;5128375;27;20367;-66
2021/11/24 09:28:39;;;;;;;;;;;;;;;;;;5129475;27;19925;-66
2021/11/24 09:31:05;;;;;;;;;;;;;;;;;;5128098;27;19919;-65
2021/11/24 09:33:30;;;;;;;;;;;;;;;;;;5108496;27;19921;-64
2021/11/24 09:35:55;;;;;;;;;;;;;;;;;;5128894;27;19911;-65
2021/11/24 09:38:20;;;;;;;;;;;;;;;;;;5130570;27;19968;-66
2021/11/24 09:40:46;;;;;;;;;;;;;;;;;;5109753;27;20195;-66
2021/11/24 09:43:12;;;;;;;;;;;;;;;;;;5109457;27;19915;-67
2021/11/24 09:45:38;;;;;;;;;;;;;;;;;;5130135;27;19926;-67
2021/11/24 09:48:03;;;;;;;;;;;;;;;;;;5129746;27;19919;-66
2021/11/24 09:50:28;;;;;;;;;;;;;;;;;;5129003;27;19920;-66
2021/11/24 09:52:54;;;;;;;;;;;;;;;;;;5110510;27;19912;-66
2021/11/24 09:55:19;;;;;;;;;;;;;;;;;;5128215;27;19958;-65
2021/11/24 09:57:45;;;;;;;;;;;;;;;;;;5126157;27;20325;-65
2021/11/24 10:00:11;;;;;;;;;;;;;;;;;;5129633;27;19971;-67
2021/11/24 10:02:41;;;;;;;;;;;;;;;;;;5126998;27;20276;-68
2021/11/24 10:05:07;;;;;;;;;;;;;;;;;;5112027;27;19986;-66
2021/11/24 10:07:32;;;;;;;;;;;;;;;;;;5127525;27;20010;-66
2021/11/24 10:09:57;;;;;;;;;;;;;;;;;;5109197;27;20286;-65
2021/11/24 10:12:22;;;;;;;;;;;;;;;;;;5127622;27;20569;-65
2021/11/24 10:14:47;;;;;;;;;;;;;;;;;;5128741;27;20014;-68
2021/11/24 10:17:13;;;;;;;;;;;;;;;;;;5130366;27;20041;-65
2021/11/24 10:19:38;;;;;;;;;;;;;;;;;;5124564;27;19922;-65
2021/11/24 10:22:03;;;;;;;;;;;;;;;;;;5129907;27;19920;-66
2021/11/24 10:24:28;;;;;;;;;;;;;;;;;;5107352;27;19950;-66
2021/11/24 10:26:54;;;;;;;;;;;;;;;;;;5129827;27;19922;-67
2021/11/24 10:29:19;;;;;;;;;;;;;;;;;;5106914;27;19919;-66
2021/11/24 10:31:44;;;;;;;;;;;;;;;;;;5130528;27;19946;-66
2021/11/24 10:34:09;;;;;;;;;;;;;;;;;;5125586;27;19954;-67
2021/11/24 10:36:34;;;;;;;;;;;;;;;;;;5126528;27;20006;-66
2021/11/24 10:39:00;;;;;;;;;;;;;;;;;;5126350;27;19923;-66
2021/11/24 10:41:25;;;;;;;;;;;;;;;;;;5128957;27;19923;-66
2021/11/24 10:43:51;;;;;;;;;;;;;;;;;;5126591;27;20312;-67
2021/11/24 10:46:17;;;;;;;;;;;;;;;;;;5130116;27;19915;-66
2021/11/24 10:48:42;;;;;;;;;;;;;;;;;;5106068;27;20368;-67
2021/11/24 10:51:08;;;;;;;;;;;;;;;;;;5130102;27;19992;-65
2021/11/24 10:53:33;;;;;;;;;;;;;;;;;;5126995;27;20154;-66
2021/11/24 10:55:58;;;;;;;;;;;;;;;;;;5132901;27;20064;-66
2021/11/24 10:58:27;;;;;;;;;;;;;;;;;;5111538;27;19907;-65
2021/11/24 11:00:52;;;;;;;;;;;;;;;;;;5109056;27;19915;-66
2021/11/24 11:03:17;;;;;;;;;;;;;;;;;;5129700;27;19915;-66
2021/11/24 11:05:44;;;;;;;;;;;;;;;;;;5130918;27;19923;-67
2021/11/24 11:08:09;;;;;;;;;;;;;;;;;;5106350;27;19975;-66
2021/11/24 11:10:35;;;;;;;;;;;;;;;;;;5129852;27;19919;-68
2021/11/24 11:13:00;;;;;;;;;;;;;;;;;;5128728;27;19919;-66
2021/11/24 11:15:25;;;;;;;;;;;;;;;;;;5130138;27;20261;-66
2021/11/24 11:17:50;;;;;;;;;;;;;;;;;;5130404;27;19919;-64
2021/11/24 11:20:16;;;;;;;;;;;;;;;;;;5133102;27;20179;-66
2021/11/24 11:22:42;;;;;;;;;;;;;;;;;;5129013;27;19919;-65
2021/11/24 11:25:07;;;;;;;;;;;;;;;;;;5129624;27;19916;-67
2021/11/24 11:27:32;;;;;;;;;;;;;;;;;;5131168;27;19923;-66
2021/11/24 11:29:59;;;;;;;;;;;;;;;;;;5115424;27;19923;-65
2021/11/24 11:32:25;;;;;;;;;;;;;;;;;;5095305;27;19957;-67
2021/11/24 11:34:50;;;;;;;;;;;;;;;;;;5114584;27;20033;-68
2021/11/24 11:37:15;;;;;;;;;;;;;;;;;;5129802;27;20002;-70
2021/11/24 11:39:40;;;;;;;;;;;;;;;;;;5132262;27;20034;-68
2021/11/24 11:42:06;;;;;;;;;;;;;;;;;;5111735;27;19915;-66
2021/11/24 11:44:31;;;;;;;;;;;;;;;;;;5129102;27;19916;-66
2021/11/24 11:46:56;;;;;;;;;;;;;;;;;;5110351;27;19911;-65
2021/11/24 11:49:21;;;;;;;;;;;;;;;;;;5131788;27;19969;-66
2021/11/24 11:51:47;;;;;;;;;;;;;;;;;;5112685;27;19925;-67
2021/11/24 11:54:12;;;;;;;;;;;;;;;;;;5094360;27;19947;-65
2021/11/24 11:56:38;;;;;;;;;;;;;;;;;;5126572;27;19970;-67
2021/11/24 11:59:03;;;;;;;;;;;;;;;;;;5109190;27;19915;-67
2021/11/24 12:01:29;;;;;;;;;;;;;;;;;;5112411;27;20373;-67
2021/11/24 12:03:54;;;;;;;;;;;;;;;;;;5109784;27;19915;-67
2021/11/24 12:06:20;;;;;;;;;;;;;;;;;;5113077;27;20316;-66
2021/11/24 12:08:45;;;;;;;;;;;;;;;;;;5128893;27;19960;-66
2021/11/24 12:11:10;;;;;;;;;;;;;;;;;;5107996;27;19923;-67
2021/11/24 12:13:35;;;;;;;;;;;;;;;;;;5112786;27;19915;-67
2021/11/24 12:16:01;;;;;;;;;;;;;;;;;;5110459;27;20004;-66
2021/11/24 12:18:26;;;;;;;;;;;;;;;;;;5128051;27;19915;-69
2021/11/24 12:20:51;;;;;;;;;;;;;;;;;;5129310;27;19922;-66
2021/11/24 12:23:16;;;;;;;;;;;;;;;;;;5128025;27;19922;-66
2021/11/24 12:25:42;;;;;;;;;;;;;;;;;;5111602;27;19945;-66
2021/11/24 12:28:09;;;;;;;;;;;;;;;;;;5108612;27;20276;-66
2021/11/24 12:33:02;;;;;;;;;;;;;;;;;;5108495;27;19915;-67
2021/11/24 12:35:27;;;;;;;;;;;;;;;;;;5110726;27;19927;-66
2021/11/24 12:37:52;;;;;;;;;;;;;;;;;;5130344;27;19920;-66
2021/11/24 12:40:18;;;;;;;;;;;;;;;;;;5128445;27;19915;-66
2021/11/24 12:42:43;;;;;;;;;;;;;;;;;;5129930;27;19928;-66
2021/11/24 12:45:08;;;;;;;;;;;;;;;;;;5130078;27;19954;-66
2021/11/24 12:47:33;;;;;;;;;;;;;;;;;;5128491;27;19916;-65
2021/11/24 12:49:58;;;;;;;;;;;;;;;;;;5087852;27;19930;-67
2021/11/24 12:52:24;;;;;;;;;;;;;;;;;;5107736;27;19922;-67
2021/11/24 12:54:49;;;;;;;;;;;;;;;;;;5109756;27;19915;-66
2021/11/24 12:57:14;;;;;;;;;;;;;;;;;;5107345;27;19915;-66
2021/11/24 12:59:42;;;;;;;;;;;;;;;;;;5129774;27;19917;-65
2021/11/24 13:02:09;;;;;;;;;;;;;;;;;;5109639;27;19962;-66
2021/11/24 13:04:36;;;;;;;;;;;;;;;;;;5114679;27;20177;-66
2021/11/24 13:07:01;;;;;;;;;;;;;;;;;;5128868;27;19925;-66
2021/11/24 13:09:27;;;;;;;;;;;;;;;;;;5127461;27;19919;-65
2021/11/24 13:11:53;;;;;;;;;;;;;;;;;;5127594;27;19920;-67
2021/11/24 13:14:18;;;;;;;;;;;;;;;;;;5126553;27;19962;-66
2021/11/24 13:16:43;;;;;;;;;;;;;;;;;;5126072;27;19915;-67
2021/11/24 13:19:09;;;;;;;;;;;;;;;;;;5093878;27;19964;-66
2021/11/24 13:21:34;;;;;;;;;;;;;;;;;;5108083;27;19922;-66
2021/11/24 13:23:59;;;;;;;;;;;;;;;;;;5110871;27;19915;-66
2021/11/24 13:26:24;;;;;;;;;;;;;;;;;;5126775;27;20016;-66
2021/11/24 13:28:49;;;;;;;;;;;;;;;;;;5129727;27;19962;-67
2021/11/24 13:31:15;;;;;;;;;;;;;;;;;;5130030;27;19942;-66
2021/11/24 13:33:41;;;;;;;;;;;;;;;;;;5089971;27;19935;-65
2021/11/24 13:36:07;;;;;;;;;;;;;;;;;;5113866;27;19941;-67
2021/11/24 13:38:32;;;;;;;;;;;;;;;;;;5127007;27;20476;-66
2021/11/24 13:40:58;;;;;;;;;;;;;;;;;;5129233;27;20006;-66
2021/11/24 13:43:23;;;;;;;;;;;;;;;;;;5112054;27;19941;-66
2021/11/24 13:45:48;;;;;;;;;;;;;;;;;;5130117;27;20323;-66
2021/11/24 13:48:13;;;;;;;;;;;;;;;;;;5107395;27;20240;-65
2021/11/24 13:50:39;;;;;;;;;;;;;;;;;;5129181;27;19916;-66
2021/11/24 13:53:04;;;;;;;;;;;;;;;;;;5130948;27;19923;-68
2021/11/24 13:55:29;;;;;;;;;;;;;;;;;;5110963;27;20461;-66
2021/11/24 13:57:54;;;;;;;;;;;;;;;;;;5108519;27;19992;-68
2021/11/24 14:00:20;;;;;;;;;;;;;;;;;;5109139;27;19987;-65
2021/11/24 14:02:45;;;;;;;;;;;;;;;;;;5126889;27;20022;-66
2021/11/24 14:05:11;;;;;;;;;;;;;;;;;;5127397;27;19915;-66
2021/11/24 14:07:37;;;;;;;;;;;;;;;;;;5130704;27;19958;-65
2021/11/24 14:10:02;;;;;;;;;;;;;;;;;;5126707;27;19919;-69
2021/11/24 14:12:28;;;;;;;;;;;;;;;;;;5125443;27;19924;-66
2021/11/24 14:14:54;;;;;;;;;;;;;;;;;;5123591;27;19923;-65
2021/11/24 14:17:19;;;;;;;;;;;;;;;;;;5127661;27;19916;-66
2021/11/24 14:19:44;;;;;;;;;;;;;;;;;;5108964;27;19920;-66
2021/11/24 14:22:09;;;;;;;;;;;;;;;;;;5125357;27;19915;-65
2021/11/24 14:24:35;;;;;;;;;;;;;;;;;;5127283;27;20288;-66
2021/11/24 14:27:00;;;;;;;;;;;;;;;;;;5107098;27;20453;-66
2021/11/24 14:29:25;;;;;;;;;;;;;;;;;;5110694;27;19983;-66
2021/11/24 14:31:50;;;;;;;;;;;;;;;;;;5130556;27;19958;-65
2021/11/24 14:34:15;;;;;;;;;;;;;;;;;;5113357;27;19942;-66
2021/11/24 14:36:42;;;;;;;;;;;;;;;;;;5134159;27;20011;-65
2021/11/24 14:39:07;;;;;;;;;;;;;;;;;;5134379;27;20466;-66
2021/11/24 14:41:32;;;;;;;;;;;;;;;;;;5129508;27;19915;-65
2021/11/24 14:43:57;;;;;;;;;;;;;;;;;;5111665;27;20419;-68
2021/11/24 14:46:23;;;;;;;;;;;;;;;;;;5131500;27;20331;-67
2021/11/24 14:48:48;;;;;;;;;;;;;;;;;;5130135;27;19919;-67
2021/11/24 14:51:13;;;;;;;;;;;;;;;;;;5110538;27;19919;-68
2021/11/24 14:53:38;;;;;;;;;;;;;;;;;;5130186;27;19944;-67
2021/11/24 14:56:04;;;;;;;;;;;;;;;;;;5096221;27;20234;-66
2021/11/24 14:58:32;;;;;;;;;;;;;;;;;;5132169;27;20744;-67
2021/11/24 15:00:57;;;;;;;;;;;;;;;;;;5129954;27;20492;-66
2021/11/24 15:03:22;;;;;;;;;;;;;;;;;;5128722;27;19937;-66
2021/11/24 15:05:48;;;;;;;;;;;;;;;;;;5130825;27;19998;-67
2021/11/24 15:08:13;;;;;;;;;;;;;;;;;;5129712;27;20018;-66
2021/11/24 15:10:38;;;;;;;;;;;;;;;;;;5132487;27;19923;-67
2021/11/24 15:13:03;;;;;;;;;;;;;;;;;;5127669;27;19921;-66
2021/11/24 15:15:29;;;;;;;;;;;;;;;;;;5113839;27;19915;-65
2021/11/24 15:17:54;;;;;;;;;;;;;;;;;;5115310;27;19916;-66
2021/11/24 15:20:19;;;;;;;;;;;;;;;;;;5137915;27;20737;-65
2021/11/24 15:22:44;;;;;;;;;;;;;;;;;;5130752;27;20379;-66
2021/11/24 15:25:09;;;;;;;;;;;;;;;;;;5117408;27;20293;-65
2021/11/24 15:27:35;;;;;;;;;;;;;;;;;;5136054;27;19912;-66
2021/11/24 15:30:00;;;;;;;;;;;;;;;;;;5137197;27;20116;-65
2021/11/24 15:32:25;;;;;;;;;;;;;;;;;;5132940;27;20109;-65
2021/11/24 15:34:50;;;;;;;;;;;;;;;;;;5130273;27;19956;-66
2021/11/24 15:37:16;;;;;;;;;;;;;;;;;;5136534;27;19914;-66
2021/11/24 15:39:41;;;;;;;;;;;;;;;;;;5072045;27;19927;-66
2021/11/24 15:42:06;;;;;;;;;;;;;;;;;;5072804;28;19946;-67
2021/11/24 15:44:31;;;;;;;;;;;;;;;;;;5059730;28;19921;-67
2021/11/24 15:46:57;;;;;;;;;;;;;;;;;;5067705;28;19974;-66
2021/11/24 15:49:22;;;;;;;;;;;;;;;;;;5073308;28;19921;-67
2021/11/24 15:51:47;;;;;;;;;;;;;;;;;;5070172;28;19920;-66
2021/11/24 15:54:14;;;;;;;;;;;;;;;;;;5055866;28;20007;-67
2021/11/24 15:56:39;;;;;;;;;;;;;;;;;;5072039;28;19917;-67
2021/11/24 15:59:04;;;;;;;;;;;;;;;;;;5072493;28;19916;-68
2021/11/24 16:01:30;;;;;;;;;;;;;;;;;;5053623;28;19923;-68
2021/11/24 16:03:55;;;;;;;;;;;;;;;;;;5073634;28;20364;-67
2021/11/24 16:06:23;;;;;;;;;;;;;;;;;;5070508;28;21755;-67
2021/11/24 16:08:48;;;;;;;;;;;;;;;;;;5069955;28;19934;-66
2021/11/24 16:11:13;;;;;;;;;;;;;;;;;;5054241;28;19919;-65
2021/11/24 16:13:39;;;;;;;;;;;;;;;;;;5054870;28;20118;-66
2021/11/24 16:16:04;;;;;;;;;;;;;;;;;;5072104;28;19917;-67
2021/11/24 16:18:29;;;;;;;;;;;;;;;;;;5047851;28;19917;-68
2021/11/24 16:20:54;;;;;;;;;;;;;;;;;;5061896;28;19920;-67
2021/11/24 16:23:19;;;;;;;;;;;;;;;;;;5065962;28;19921;-67
2021/11/24 16:25:45;;;;;;;;;;;;;;;;;;5050106;28;20377;-68
2021/11/24 16:28:10;;;;;;;;;;;;;;;;;;5053605;28;19916;-68
2021/11/24 16:30:36;;;;;;;;;;;;;;;;;;5073906;28;20345;-68
2021/11/24 16:33:01;;;;;;;;;;;;;;;;;;5065263;28;20468;-68
2021/11/24 16:35:26;;;;;;;;;;;;;;;;;;5075236;28;19923;-67
2021/11/24 16:37:51;;;;;;;;;;;;;;;;;;5071782;28;19920;-67
2021/11/24 16:40:17;;;;;;;;;;;;;;;;;;5049943;28;19913;-68